Timberline Lodge, Oregon
Current Conditions -  °F | °C
As of 4:39 AM on Monday 22 Dec 2014 (Local Time) from K4S2 Reporting Station
Clear Clear  
Wind Chill: 44°   Ceiling: Unl
Heat Index: 48°   Visibility: 10mi
Dew Point: 43°   Wind: 10mph
Humidity: 82%   Direction: 280°W
Pressure: 30.22"   Gusts: 17mph
Location:  45.2658°N, 121.797°W
Report Text: K4S2 221239Z AUTO 28009G15KT 10SM CLR 09/06 A3022 RMK AO2 SLP249 T00900060
Loading
Personal Weather Stations






























Interactive Weather Map New forecast layout! Learn more

10-Day Weather Forecast

Advertisements
Track Severe Weather on mobile